Time;durP1;ratioP1;P1;durP2;ratioP2;P2;SDS_P1;SDS_P2;PMS_P1;PMS_P2;Temp;Humidity;BMP_temperature;BMP_pressure;BME280_temperature;BME280_humidity;BME280_pressure;Samples;Min_cycle;Max_cycle;Signal;HPM_P1;HPM_P2
2023/05/19 00:01:12;;;;;;;10.55;6.07;;;24.60;99.90;;;;;;5036472;28;20053;-54
2023/05/19 00:03:47;;;;;;;8.95;5.35;;;24.60;99.90;;;;;;5035914;28;20017;-54
2023/05/19 00:06:13;;;;;;;9.05;5.55;;;24.60;99.90;;;;;;5035625;28;20041;-54
2023/05/19 00:08:39;;;;;;;9.38;5.03;;;24.60;99.90;;;;;;5035556;28;20063;-54
2023/05/19 00:11:06;;;;;;;8.23;5.20;;;24.60;99.90;;;;;;5035842;28;20113;-54
2023/05/19 00:13:32;;;;;;;7.00;5.18;;;24.60;99.90;;;;;;5035739;28;20037;-54
2023/05/19 00:15:58;;;;;;;8.15;5.47;;;24.60;99.90;;;;;;5035588;28;20017;-54
2023/05/19 00:18:23;;;;;;;8.63;5.20;;;24.50;99.90;;;;;;5034045;28;20052;-55
2023/05/19 00:20:51;;;;;;;7.35;4.93;;;24.50;99.90;;;;;;5035710;28;20026;-54
2023/05/19 00:23:16;;;;;;;7.80;5.32;;;24.50;99.90;;;;;;5035372;28;20024;-54
2023/05/19 00:25:42;;;;;;;6.97;4.93;;;24.50;99.90;;;;;;5035384;28;20057;-54
2023/05/19 00:28:08;;;;;;;7.18;5.15;;;24.50;99.90;;;;;;5035539;28;20018;-54
2023/05/19 00:30:34;;;;;;;7.53;5.20;;;24.50;99.90;;;;;;5035275;28;20088;-56
2023/05/19 00:32:59;;;;;;;8.15;5.10;;;24.50;99.90;;;;;;5035577;28;20032;-55
2023/05/19 00:35:25;;;;;;;10.30;5.65;;;24.50;99.90;;;;;;5035218;28;20032;-54
2023/05/19 00:37:51;;;;;;;8.23;5.40;;;24.50;99.90;;;;;;5035156;28;20021;-55
2023/05/19 00:40:17;;;;;;;8.50;5.28;;;24.50;99.90;;;;;;5035321;28;20431;-56
2023/05/19 00:42:42;;;;;;;7.95;5.25;;;24.50;99.90;;;;;;5035213;28;20029;-55
2023/05/19 00:45:08;;;;;;;8.73;5.28;;;24.50;99.90;;;;;;5034984;28;20010;-54
2023/05/19 00:47:34;;;;;;;9.65;5.15;;;24.50;99.90;;;;;;5020436;28;20017;-55
2023/05/19 00:50:00;;;;;;;6.40;4.88;;;24.50;99.90;;;;;;5035009;28;20029;-54
2023/05/19 00:52:27;;;;;;;8.68;5.40;;;24.50;99.90;;;;;;5034819;28;20021;-53
2023/05/19 00:54:54;;;;;;;9.57;5.57;;;24.50;99.90;;;;;;5035243;28;20347;-53
2023/05/19 00:57:20;;;;;;;6.93;5.13;;;24.50;99.90;;;;;;5034792;28;20043;-55
2023/05/19 00:59:47;;;;;;;7.78;5.30;;;24.50;99.90;;;;;;5033332;28;20477;-53
2023/05/19 01:02:13;;;;;;;8.07;5.22;;;24.50;99.90;;;;;;5033996;28;20053;-53
2023/05/19 01:04:40;;;;;;;7.75;4.95;;;24.50;99.90;;;;;;5034642;28;20474;-52
2023/05/19 01:07:06;;;;;;;8.75;5.07;;;24.50;99.90;;;;;;5034787;28;20524;-54
2023/05/19 01:09:32;;;;;;;7.85;5.40;;;24.50;99.90;;;;;;5033403;28;20021;-55
2023/05/19 01:12:01;;;;;;;10.40;5.18;;;24.40;99.90;;;;;;5034693;28;20500;-53
2023/05/19 01:14:28;;;;;;;8.07;4.93;;;24.40;99.90;;;;;;5034594;28;20043;-55
2023/05/19 01:17:06;;;;;;;8.75;5.43;;;24.40;99.90;;;;;;5034811;28;20026;-54
2023/05/19 01:20:00;;;;;;;8.40;5.38;;;24.40;99.90;;;;;;5034370;28;20026;-54
2023/05/19 01:22:44;;;;;;;9.43;5.60;;;24.40;99.90;;;;;;5032993;28;20029;-58
2023/05/19 01:25:18;;;;;;;8.13;4.90;;;24.40;99.90;;;;;;5021659;28;20029;-55
2023/05/19 01:28:09;;;;;;;10.80;4.85;;;24.40;99.90;;;;;;5034188;28;20072;-53
2023/05/19 01:30:43;;;;;;;7.75;5.30;;;24.40;99.90;;;;;;5034169;28;20033;-54
2023/05/19 01:33:14;;;;;;;8.20;5.03;;;24.40;99.90;;;;;;5034205;28;20018;-52
2023/05/19 01:35:41;;;;;;;8.35;5.50;;;24.40;99.90;;;;;;5034310;28;20021;-56
2023/05/19 01:38:09;;;;;;;7.85;5.22;;;24.30;99.90;;;;;;5033987;28;20024;-54
2023/05/19 01:40:37;;;;;;;8.80;5.63;;;24.40;99.90;;;;;;5032977;28;20432;-52
2023/05/19 01:43:03;;;;;;;8.18;5.35;;;24.30;99.90;;;;;;5034289;28;20443;-53
2023/05/19 01:45:31;;;;;;;8.15;5.28;;;24.30;99.90;;;;;;5033966;28;20473;-52
2023/05/19 01:47:59;;;;;;;7.35;4.72;;;24.30;99.90;;;;;;5034033;28;20037;-53
2023/05/19 01:50:25;;;;;;;8.52;5.00;;;24.30;99.90;;;;;;5033958;28;20037;-54
2023/05/19 01:52:52;;;;;;;7.35;5.70;;;24.30;99.90;;;;;;5033792;28;20052;-54
2023/05/19 01:55:18;;;;;;;9.00;5.53;;;24.30;99.90;;;;;;5034033;28;20017;-54
2023/05/19 01:58:10;;;;;;;9.50;6.13;;;24.30;99.90;;;;;;5034006;28;20026;-54
2023/05/19 02:01:08;;;;;;;7.88;5.10;;;24.30;99.90;;;;;;5025422;28;20038;-54
2023/05/19 02:04:00;;;;;;;8.40;5.63;;;24.30;99.90;;;;;;5021460;28;20121;-55
2023/05/19 02:06:39;;;;;;;10.85;6.00;;;24.30;99.90;;;;;;5033623;28;20021;-55
2023/05/19 02:09:21;;;;;;;8.77;5.80;;;24.30;99.90;;;;;;5032412;28;20354;-55
2023/05/19 02:12:09;;;;;;;9.85;6.20;;;24.30;99.90;;;;;;5032076;28;20029;-52
2023/05/19 02:14:40;;;;;;;8.70;5.88;;;24.30;99.90;;;;;;5033309;28;20018;-52
2023/05/19 02:17:07;;;;;;;10.35;6.15;;;24.20;99.90;;;;;;5032311;28;20076;-52
2023/05/19 02:19:38;;;;;;;8.73;6.20;;;24.20;99.90;;;;;;5033493;28;20026;-52
2023/05/19 02:22:04;;;;;;;9.90;6.35;;;24.30;99.90;;;;;;5033331;28;20466;-52
2023/05/19 02:24:30;;;;;;;11.50;6.57;;;24.20;99.90;;;;;;5032033;28;20104;-52
2023/05/19 02:26:56;;;;;;;8.93;5.55;;;24.20;99.90;;;;;;5033274;28;20108;-53
2023/05/19 02:29:22;;;;;;;9.18;6.40;;;24.30;99.90;;;;;;5015370;28;20033;-52
2023/05/19 02:31:48;;;;;;;7.90;5.80;;;24.20;99.90;;;;;;5033378;28;20038;-52
2023/05/19 02:34:13;;;;;;;10.38;6.30;;;24.20;99.90;;;;;;5033231;28;20428;-54
2023/05/19 02:36:41;;;;;;;8.85;6.50;;;24.20;99.90;;;;;;5033067;28;20421;-53
2023/05/19 02:39:11;;;;;;;8.77;6.35;;;24.20;99.90;;;;;;5033225;28;20063;-53
2023/05/19 02:41:37;;;;;;;11.27;6.68;;;24.20;99.90;;;;;;5033183;28;20043;-52
2023/05/19 02:44:04;;;;;;;9.97;6.30;;;24.20;99.90;;;;;;5033248;28;20033;-52
2023/05/19 02:46:29;;;;;;;9.55;6.00;;;24.20;99.90;;;;;;5033002;28;20018;-53
2023/05/19 02:48:55;;;;;;;10.98;6.22;;;24.20;99.90;;;;;;5033106;28;20078;-52
2023/05/19 02:51:21;;;;;;;10.98;6.80;;;24.20;99.90;;;;;;5031464;28;20036;-52
2023/05/19 02:53:47;;;;;;;9.40;5.90;;;24.20;99.90;;;;;;5031369;28;20022;-52
2023/05/19 02:56:12;;;;;;;9.38;6.50;;;24.20;99.90;;;;;;5031290;28;20025;-52
2023/05/19 02:58:38;;;;;;;9.38;6.45;;;24.20;99.90;;;;;;5033106;28;20116;-52
2023/05/19 03:01:04;;;;;;;8.68;6.22;;;24.20;99.90;;;;;;5045103;22;20462;-54
2023/05/19 03:03:30;;;;;;;10.18;6.50;;;24.20;99.90;;;;;;5032911;28;20033;-55
2023/05/19 03:05:56;;;;;;;8.98;6.38;;;24.20;99.90;;;;;;5032957;28;20022;-55
2023/05/19 03:08:22;;;;;;;9.32;6.55;;;24.10;99.90;;;;;;5031433;28;20029;-55
2023/05/19 03:10:48;;;;;;;12.00;6.53;;;24.10;99.90;;;;;;5032828;28;20030;-55
2023/05/19 03:13:15;;;;;;;9.85;6.35;;;24.20;99.90;;;;;;5033139;28;20048;-56
2023/05/19 03:15:41;;;;;;;10.68;6.55;;;24.10;99.90;;;;;;5032458;28;20021;-55
2023/05/19 03:18:07;;;;;;;10.40;5.80;;;24.10;99.90;;;;;;5032784;28;20018;-56
2023/05/19 03:20:33;;;;;;;10.95;6.50;;;24.10;99.90;;;;;;5032828;28;20549;-54
2023/05/19 03:23:00;;;;;;;9.57;6.70;;;24.10;99.90;;;;;;5034750;28;20488;-55
2023/05/19 03:25:26;;;;;;;10.02;6.38;;;24.10;99.90;;;;;;5036970;28;20033;-55
2023/05/19 03:27:51;;;;;;;10.20;6.55;;;24.10;99.90;;;;;;5036283;28;20018;-55
2023/05/19 03:30:17;;;;;;;8.27;5.95;;;24.10;99.90;;;;;;5036426;28;20087;-56
2023/05/19 03:32:43;;;;;;;9.23;5.63;;;24.10;99.90;;;;;;5036662;28;20021;-56
2023/05/19 03:35:09;;;;;;;9.75;6.72;;;24.10;99.90;;;;;;5036510;28;20021;-55
2023/05/19 03:37:35;;;;;;;8.35;6.18;;;24.10;99.90;;;;;;5036302;28;20446;-55
2023/05/19 03:40:00;;;;;;;7.82;5.75;;;24.10;99.90;;;;;;5023921;28;20063;-55
2023/05/19 03:42:26;;;;;;;9.68;6.15;;;24.00;99.90;;;;;;5036533;28;20071;-55
2023/05/19 03:44:52;;;;;;;8.52;6.18;;;24.10;99.90;;;;;;5036289;28;20385;-54
2023/05/19 03:47:18;;;;;;;8.57;5.75;;;24.10;99.90;;;;;;5036101;28;20034;-56
2023/05/19 03:49:43;;;;;;;9.32;5.95;;;24.10;99.90;;;;;;5036447;28;20025;-55
2023/05/19 03:52:09;;;;;;;9.57;6.45;;;24.00;99.90;;;;;;5025870;28;20036;-55
2023/05/19 03:54:38;;;;;;;9.38;6.00;;;24.10;99.90;;;;;;5036180;28;20107;-55
2023/05/19 03:57:04;;;;;;;8.82;6.20;;;24.00;99.90;;;;;;5034832;28;20080;-55
2023/05/19 03:59:30;;;;;;;8.70;5.85;;;24.00;99.90;;;;;;5035548;28;20487;-55
2023/05/19 04:01:57;;;;;;;11.63;6.85;;;24.00;99.90;;;;;;5031636;28;20133;-56
2023/05/19 04:04:22;;;;;;;9.10;6.50;;;24.00;99.90;;;;;;5016049;28;20022;-56
2023/05/19 04:06:48;;;;;;;9.15;6.20;;;24.00;99.90;;;;;;5016209;28;20080;-56
2023/05/19 04:09:14;;;;;;;9.40;6.35;;;24.00;99.90;;;;;;5016248;28;20026;-56
2023/05/19 04:11:41;;;;;;;9.70;6.60;;;24.00;99.90;;;;;;5015911;28;20109;-55
2023/05/19 04:14:08;;;;;;;11.03;6.80;;;24.00;99.90;;;;;;5014555;28;20022;-56
2023/05/19 04:16:34;;;;;;;8.00;5.53;;;24.00;99.90;;;;;;5015962;28;20026;-56
2023/05/19 04:19:00;;;;;;;9.77;6.35;;;23.90;99.90;;;;;;5015909;28;20058;-57
2023/05/19 04:21:26;;;;;;;9.73;6.47;;;23.90;99.90;;;;;;5015792;28;20058;-56
2023/05/19 04:23:52;;;;;;;8.77;5.88;;;23.90;99.90;;;;;;5016002;28;20022;-56
2023/05/19 04:26:20;;;;;;;10.38;6.05;;;23.90;99.90;;;;;;5015571;28;20022;-56
2023/05/19 04:28:47;;;;;;;10.27;6.05;;;23.90;99.90;;;;;;5015713;28;20075;-56
2023/05/19 04:31:13;;;;;;;8.43;6.22;;;23.90;99.90;;;;;;5015477;28;20363;-57
2023/05/19 04:33:40;;;;;;;7.82;5.75;;;23.90;99.90;;;;;;5015286;28;20026;-56
2023/05/19 04:36:10;;;;;;;7.60;5.68;;;23.90;99.90;;;;;;5015534;28;20485;-56
2023/05/19 04:38:38;;;;;;;8.13;5.35;;;23.90;99.90;;;;;;5015668;28;20084;-56
2023/05/19 04:41:05;;;;;;;10.27;6.40;;;23.90;99.90;;;;;;5015477;28;20038;-56
2023/05/19 04:43:31;;;;;;;9.05;6.35;;;23.90;99.90;;;;;;5015453;28;20033;-55
2023/05/19 04:45:57;;;;;;;8.20;5.78;;;23.90;99.90;;;;;;5015341;28;20030;-56
2023/05/19 04:48:23;;;;;;;9.70;5.53;;;23.90;99.90;;;;;;5015292;28;20099;-56
2023/05/19 04:50:50;;;;;;;7.13;5.20;;;23.90;99.90;;;;;;5015557;28;20077;-55
2023/05/19 04:53:16;;;;;;;;;;;23.90;99.90;;;;;;5015406;28;20360;-56
2023/05/19 04:55:43;;;;;;;8.55;5.60;;;23.90;99.90;;;;;;5015426;28;19905;-55
2023/05/19 04:58:08;;;;;;;8.65;4.63;;;23.80;99.90;;;;;;5015279;28;20496;-56
2023/05/19 05:00:36;;;;;;;7.30;5.10;;;23.80;99.90;;;;;;5017325;28;20097;-56
2023/05/19 05:03:05;;;;;;;9.15;5.88;;;23.80;99.90;;;;;;5034979;28;20060;-56
2023/05/19 05:05:31;;;;;;;7.32;5.07;;;23.80;99.90;;;;;;5035065;28;20029;-55
2023/05/19 05:07:58;;;;;;;8.63;5.70;;;23.80;99.90;;;;;;5020811;28;20033;-56
2023/05/19 05:10:24;;;;;;;7.57;4.80;;;23.80;99.90;;;;;;5034691;28;20034;-55
2023/05/19 05:12:50;;;;;;;8.75;5.15;;;23.80;99.90;;;;;;5034406;28;20048;-55
2023/05/19 05:15:16;;;;;;;9.40;4.90;;;23.80;99.90;;;;;;5033350;28;20474;-55
2023/05/19 05:17:42;;;;;;;6.88;4.68;;;23.80;99.90;;;;;;5034779;28;20029;-55
2023/05/19 05:20:10;;;;;;;8.18;4.65;;;23.80;99.90;;;;;;5034631;28;20020;-56
2023/05/19 05:22:37;;;;;;;8.45;5.10;;;23.80;99.90;;;;;;5034641;28;20026;-56
2023/05/19 05:25:03;;;;;;;8.57;4.40;;;23.80;99.90;;;;;;5033314;28;20034;-55
2023/05/19 05:27:30;;;;;;;6.75;4.50;;;23.70;99.90;;;;;;5034453;28;20021;-56
2023/05/19 05:29:55;;;;;;;8.70;5.10;;;23.80;99.90;;;;;;5034115;28;20505;-56
2023/05/19 05:32:21;;;;;;;8.18;4.38;;;23.70;99.90;;;;;;5034428;28;20102;-55
2023/05/19 05:34:48;;;;;;;8.48;4.10;;;23.80;99.90;;;;;;5034247;28;20466;-54
2023/05/19 05:37:14;;;;;;;6.60;4.43;;;23.80;99.90;;;;;;5034340;28;20064;-55
2023/05/19 05:39:40;;;;;;;6.95;4.30;;;23.70;99.90;;;;;;5034111;28;20028;-57
2023/05/19 05:42:07;;;;;;;7.78;4.30;;;23.80;99.90;;;;;;5020721;28;20108;-56
2023/05/19 05:44:34;;;;;;;6.28;4.60;;;23.70;99.90;;;;;;5033574;28;20055;-55
2023/05/19 05:47:01;;;;;;;5.80;4.07;;;23.70;99.90;;;;;;5032787;28;20021;-56
2023/05/19 05:49:27;;;;;;;9.00;4.70;;;23.70;99.90;;;;;;5034292;28;20504;-56
2023/05/19 05:51:53;;;;;;;7.47;4.75;;;23.70;99.90;;;;;;5033155;28;20132;-56
2023/05/19 05:54:21;;;;;;;7.53;4.50;;;23.70;99.90;;;;;;5033781;28;20029;-55
2023/05/19 05:56:47;;;;;;;;;;;23.70;99.90;;;;;;5033996;28;20025;-55
2023/05/19 05:59:14;;;;;;;9.05;4.35;;;23.70;99.90;;;;;;5033083;28;19905;-56
2023/05/19 06:01:40;;;;;;;7.22;4.25;;;23.70;99.90;;;;;;5033335;28;20046;-55
2023/05/19 06:04:06;;;;;;;8.47;4.20;;;23.70;99.90;;;;;;5033654;28;20053;-55
2023/05/19 06:06:32;;;;;;;8.10;4.00;;;23.70;99.90;;;;;;5033650;28;20048;-55
2023/05/19 06:08:58;;;;;;;8.93;4.07;;;23.70;99.90;;;;;;5033646;28;20455;-55
2023/05/19 06:11:24;;;;;;;7.07;3.55;;;23.70;99.90;;;;;;5033413;28;20124;-55
2023/05/19 06:13:50;;;;;;;6.60;3.67;;;23.70;99.90;;;;;;5033583;28;20060;-54
2023/05/19 06:16:16;;;;;;;8.45;3.33;;;23.70;99.90;;;;;;5032961;28;20057;-56
2023/05/19 06:18:42;;;;;;;6.13;3.70;;;23.70;99.90;;;;;;5033686;28;20072;-55
2023/05/19 06:21:09;;;;;;;11.60;3.38;;;23.70;99.90;;;;;;5027679;28;20096;-54
2023/05/19 06:23:35;;;;;;;6.30;3.33;;;23.70;99.90;;;;;;5043594;28;20017;-54
2023/05/19 06:26:01;;;;;;;4.53;2.70;;;23.70;99.90;;;;;;5029769;28;20030;-54
2023/05/19 06:28:27;;;;;;;8.23;3.63;;;23.70;99.90;;;;;;5032231;28;20034;-53
2023/05/19 06:30:53;;;;;;;7.32;3.78;;;23.70;99.90;;;;;;5032055;28;20049;-55
2023/05/19 06:33:18;;;;;;;5.88;3.08;;;23.70;99.90;;;;;;5036540;28;20028;-54
2023/05/19 06:35:44;;;;;;;8.00;3.38;;;23.70;99.90;;;;;;5032453;28;20473;-53
2023/05/19 06:38:10;;;;;;;6.82;2.90;;;23.70;99.90;;;;;;5032336;28;20135;-54
2023/05/19 06:40:36;;;;;;;6.03;3.00;;;23.70;99.90;;;;;;5032470;28;20079;-55
2023/05/19 06:43:02;;;;;;;5.28;3.15;;;23.70;99.90;;;;;;5032090;28;20065;-55
2023/05/19 06:45:27;;;;;;;4.63;2.80;;;23.70;99.90;;;;;;5032631;28;20033;-53
2023/05/19 06:47:54;;;;;;;5.13;2.78;;;23.70;99.90;;;;;;5030772;28;20542;-53
2023/05/19 06:50:20;;;;;;;6.85;3.55;;;23.70;99.90;;;;;;5017267;28;20128;-54
2023/05/19 06:52:45;;;;;;;7.88;3.30;;;23.70;99.90;;;;;;5014369;28;20156;-53
2023/05/19 06:55:12;;;;;;;5.45;2.55;;;23.70;99.90;;;;;;5031817;28;20025;-55
2023/05/19 06:57:37;;;;;;;8.00;2.88;;;23.70;99.90;;;;;;5032307;28;20499;-54
2023/05/19 07:00:05;;;;;;;6.90;2.45;;;23.70;99.90;;;;;;5031880;28;20156;-55
2023/05/19 07:02:31;;;;;;;;;;;23.70;99.90;;;;;;5031668;28;20506;-55
2023/05/19 07:04:57;;;;;;;9.40;3.45;;;23.70;99.90;;;;;;5032896;28;19915;-54
2023/05/19 07:07:22;;;;;;;5.25;3.05;;;23.70;99.90;;;;;;5032388;28;20104;-55
2023/05/19 07:09:48;;;;;;;6.38;2.95;;;23.70;99.90;;;;;;5032914;28;20104;-54
2023/05/19 07:12:14;;;;;;;12.00;3.70;;;23.70;99.90;;;;;;5032861;28;20079;-56
2023/05/19 07:14:40;;;;;;;5.07;2.92;;;23.70;99.90;;;;;;5032888;28;20084;-56
2023/05/19 07:17:05;;;;;;;6.65;3.13;;;23.70;99.90;;;;;;5032999;28;20030;-56
2023/05/19 07:19:31;;;;;;;7.55;3.50;;;23.70;99.90;;;;;;5033056;28;20021;-56
2023/05/19 07:21:58;;;;;;;4.70;2.65;;;23.70;99.90;;;;;;5032665;28;20068;-55
2023/05/19 07:24:24;;;;;;;6.07;3.05;;;23.70;99.90;;;;;;5032716;28;20517;-55
2023/05/19 07:26:49;;;;;;;6.15;3.33;;;23.70;99.90;;;;;;5032536;28;20104;-54
2023/05/19 07:29:15;;;;;;;6.43;2.70;;;23.70;99.90;;;;;;5031259;28;20040;-55
2023/05/19 07:31:41;;;;;;;6.38;2.70;;;23.70;99.90;;;;;;5032602;28;20038;-55
2023/05/19 07:34:07;;;;;;;6.38;3.08;;;23.70;99.90;;;;;;5032624;28;20083;-55
2023/05/19 07:36:33;;;;;;;6.78;4.00;;;23.70;99.90;;;;;;5032657;28;20053;-55
2023/05/19 07:38:59;;;;;;;5.90;3.20;;;23.70;99.90;;;;;;5032598;28;20056;-55
2023/05/19 07:41:25;;;;;;;7.18;3.17;;;23.70;99.90;;;;;;5032786;28;20029;-55
2023/05/19 07:43:50;;;;;;;5.60;3.15;;;23.70;99.90;;;;;;5032328;28;20466;-55
2023/05/19 07:46:16;;;;;;;5.97;3.47;;;23.80;99.90;;;;;;5031360;28;20112;-56
2023/05/19 07:48:42;;;;;;;6.25;2.83;;;23.80;99.90;;;;;;5032637;28;20041;-56
2023/05/19 07:51:11;;;;;;;4.43;3.05;;;23.80;99.90;;;;;;5032071;28;20033;-55
2023/05/19 07:53:37;;;;;;;6.28;3.53;;;23.80;99.90;;;;;;5031051;28;20022;-56
2023/05/19 07:56:03;;;;;;;5.60;3.20;;;23.80;99.90;;;;;;5030904;28;20028;-56
2023/05/19 07:58:29;;;;;;;6.70;3.05;;;23.80;99.90;;;;;;5032524;28;20033;-55
2023/05/19 08:00:58;;;;;;;9.45;3.30;;;23.80;99.90;;;;;;5032063;28;20124;-55
2023/05/19 08:03:25;;;;;;;6.55;3.20;;;23.80;99.90;;;;;;5032308;28;20021;-55
2023/05/19 08:05:51;;;;;;;5.20;3.43;;;23.80;99.90;;;;;;5022520;28;20033;-55
2023/05/19 08:08:18;;;;;;;5.05;3.20;;;23.80;99.90;;;;;;5031816;28;20025;-55
2023/05/19 08:10:44;;;;;;;6.30;3.10;;;23.80;99.90;;;;;;5036016;28;20032;-55
2023/05/19 08:13:10;;;;;;;6.38;3.00;;;23.80;99.90;;;;;;5035893;28;20029;-55
2023/05/19 08:15:36;;;;;;;7.05;3.33;;;23.80;99.90;;;;;;5034322;28;20025;-54
2023/05/19 08:18:03;;;;;;;4.07;2.92;;;23.90;99.90;;;;;;5035544;28;20026;-55
2023/05/19 08:20:30;;;;;;;6.55;3.67;;;23.80;99.90;;;;;;5035902;28;20079;-55
2023/05/19 08:22:56;;;;;;;6.07;3.55;;;23.80;99.90;;;;;;5035485;28;20075;-54
2023/05/19 08:25:21;;;;;;;5.43;3.40;;;23.80;99.90;;;;;;5035675;28;20037;-54
2023/05/19 08:27:47;;;;;;;6.63;3.90;;;23.90;99.90;;;;;;5035428;28;20013;-54
2023/05/19 08:30:13;;;;;;;5.65;3.80;;;23.80;99.90;;;;;;5035346;28;20035;-54
2023/05/19 08:32:39;;;;;;;6.00;3.90;;;23.90;99.90;;;;;;5035373;28;20544;-55
2023/05/19 08:35:05;;;;;;;6.68;4.38;;;23.80;99.90;;;;;;5035457;28;20550;-55
2023/05/19 08:37:30;;;;;;;7.53;3.90;;;23.90;99.90;;;;;;5035312;28;20033;-55
2023/05/19 08:39:56;;;;;;;7.35;4.53;;;23.90;99.90;;;;;;5035493;28;20378;-55
2023/05/19 08:42:22;;;;;;;6.80;4.57;;;23.90;99.90;;;;;;5035648;28;20025;-56
2023/05/19 08:44:48;;;;;;;8.10;5.00;;;23.90;99.90;;;;;;5035248;28;20028;-55
2023/05/19 08:47:14;;;;;;;7.78;4.13;;;23.90;99.90;;;;;;5035289;28;20470;-55
2023/05/19 08:49:44;;;;;;;8.15;5.00;;;23.90;99.90;;;;;;5034958;28;20021;-55
2023/05/19 08:52:30;;;;;;;7.43;4.72;;;23.90;99.90;;;;;;5024187;28;20403;-55
2023/05/19 08:55:14;;;;;;;10.18;5.15;;;23.90;99.90;;;;;;5022280;28;20049;-55
2023/05/19 08:57:40;;;;;;;6.47;4.22;;;23.90;99.90;;;;;;5034887;28;20112;-55
2023/05/19 09:00:12;;;;;;;6.45;4.47;;;23.90;99.90;;;;;;5033377;28;20013;-55
2023/05/19 09:02:40;;;;;;;7.00;4.45;;;23.90;99.90;;;;;;5034528;28;20438;-54
2023/05/19 09:05:06;;;;;;;7.25;4.88;;;24.00;99.90;;;;;;5035240;28;20029;-55
2023/05/19 09:07:33;;;;;;;8.15;4.72;;;24.00;99.90;;;;;;5034709;28;20029;-55
2023/05/19 09:10:00;;;;;;;8.68;5.00;;;24.00;99.90;;;;;;5034700;28;20029;-55
2023/05/19 09:12:27;;;;;;;6.60;4.47;;;24.00;99.90;;;;;;5033533;28;20044;-55
2023/05/19 09:14:53;;;;;;;6.07;4.32;;;24.00;99.90;;;;;;5034480;28;20022;-55
2023/05/19 09:17:18;;;;;;;7.28;4.43;;;24.00;99.90;;;;;;5034874;28;20392;-55
2023/05/19 09:19:48;;;;;;;8.55;4.65;;;24.00;99.90;;;;;;5033605;28;20017;-55
2023/05/19 09:22:20;;;;;;;9.52;4.90;;;24.00;99.90;;;;;;5034346;28;20029;-54
2023/05/19 09:24:46;;;;;;;8.18;4.63;;;24.00;99.90;;;;;;5034547;28;20024;-55
2023/05/19 09:27:24;;;;;;;5.80;3.72;;;24.00;99.90;;;;;;5034693;28;20378;-55
2023/05/19 09:29:50;;;;;;;;;;;24.00;99.90;;;;;;5034720;28;20378;-54
2023/05/19 09:32:26;;;;;;;9.27;4.70;;;24.00;99.90;;;;;;5034802;28;19954;-55
2023/05/19 09:34:53;;;;;;;8.48;4.80;;;24.10;99.90;;;;;;5034472;28;20022;-56
2023/05/19 09:37:23;;;;;;;7.35;4.72;;;24.10;99.90;;;;;;5034286;28;20025;-55
2023/05/19 09:39:51;;;;;;;7.30;4.80;;;24.10;99.90;;;;;;5021299;28;20108;-55
2023/05/19 09:42:28;;;;;;;7.93;4.55;;;24.10;99.90;;;;;;5032949;28;20022;-55
2023/05/19 09:45:04;;;;;;;6.90;4.28;;;24.00;99.90;;;;;;5034123;28;20073;-55
2023/05/19 09:47:40;;;;;;;6.47;4.43;;;24.00;99.90;;;;;;5034052;28;20029;-55
2023/05/19 09:50:08;;;;;;;7.28;3.60;;;24.10;99.90;;;;;;5034070;28;20037;-54
2023/05/19 09:52:36;;;;;;;6.93;4.25;;;24.10;99.90;;;;;;5021027;28;20029;-55
2023/05/19 09:55:04;;;;;;;5.60;4.00;;;24.00;99.90;;;;;;5034052;28;20026;-54
2023/05/19 09:57:35;;;;;;;7.47;4.40;;;24.10;99.90;;;;;;5033845;28;20394;-55
2023/05/19 10:00:16;;;;;;;5.82;4.13;;;24.10;99.90;;;;;;5033611;28;20099;-55
2023/05/19 10:02:43;;;;;;;5.97;3.55;;;24.10;99.90;;;;;;5033688;28;20132;-55
2023/05/19 10:05:15;;;;;;;6.55;3.38;;;24.10;99.90;;;;;;5033856;28;20021;-55
2023/05/19 10:07:53;;;;;;;5.90;4.13;;;24.10;99.90;;;;;;5033312;28;20131;-55
2023/05/19 10:10:19;;;;;;;;;;;24.10;99.90;;;;;;5034013;28;20548;-55
2023/05/19 10:12:46;;;;;;;4.97;3.33;;;24.10;99.90;;;;;;5033472;28;19932;-55
2023/05/19 10:15:14;;;;;;;7.13;3.63;;;24.10;99.90;;;;;;5033654;28;20068;-54
2023/05/19 10:17:42;;;;;;;5.30;3.65;;;24.10;99.90;;;;;;5033545;28;20060;-55
2023/05/19 10:20:09;;;;;;;;;;;24.10;99.90;;;;;;5033927;28;20469;-55
2023/05/19 10:22:36;;;;;;;6.57;3.17;;;24.10;99.90;;;;;;5033453;28;19913;-55
2023/05/19 10:25:02;;;;;;;6.67;3.63;;;24.20;99.90;;;;;;5020474;28;20029;-54
2023/05/19 10:27:30;;;;;;;4.72;3.03;;;24.10;99.90;;;;;;5033503;28;20113;-55
2023/05/19 10:30:00;;;;;;;5.63;3.38;;;24.10;99.90;;;;;;5033167;28;20350;-55
2023/05/19 10:32:29;;;;;;;5.57;3.00;;;24.20;99.90;;;;;;5033123;28;20029;-54
2023/05/19 10:35:04;;;;;;;3.97;2.97;;;24.10;99.90;;;;;;5030140;28;20022;-55
2023/05/19 10:37:54;;;;;;;3.80;3.00;;;24.20;99.90;;;;;;5015277;28;20119;-55
2023/05/19 10:40:29;;;;;;;4.60;2.88;;;24.20;99.90;;;;;;5033217;28;20026;-54
2023/05/19 10:43:00;;;;;;;5.45;3.13;;;24.10;99.90;;;;;;5033225;28;20013;-55
2023/05/19 10:45:29;;;;;;;4.82;3.08;;;24.20;99.90;;;;;;5033049;28;20028;-55
2023/05/19 10:47:55;;;;;;;3.70;2.90;;;24.20;99.90;;;;;;5032988;28;20377;-54
2023/05/19 10:50:21;;;;;;;4.95;3.30;;;24.20;99.90;;;;;;5033056;28;20044;-55
2023/05/19 10:52:55;;;;;;;5.90;3.00;;;24.20;99.90;;;;;;5032817;28;20040;-54
2023/05/19 10:55:51;;;;;;;4.70;3.13;;;24.20;99.90;;;;;;5033078;28;20026;-55
2023/05/19 10:58:44;;;;;;;5.78;2.92;;;24.20;99.90;;;;;;5033010;28;20029;-55
2023/05/19 11:01:15;;;;;;;4.53;3.10;;;24.20;99.90;;;;;;5032803;28;20057;-55
2023/05/19 11:03:50;;;;;;;4.18;2.92;;;24.20;99.90;;;;;;5033222;28;20033;-54
2023/05/19 11:06:23;;;;;;;4.47;2.45;;;24.30;99.90;;;;;;5032920;28;20025;-55
2023/05/19 11:08:59;;;;;;;7.10;3.10;;;24.20;99.90;;;;;;5032779;28;20018;-55
2023/05/19 11:11:41;;;;;;;4.90;3.00;;;24.20;99.90;;;;;;5032391;28;20036;-54
2023/05/19 11:14:10;;;;;;;8.52;3.10;;;24.30;99.90;;;;;;5032691;28;20105;-54
2023/05/19 11:16:38;;;;;;;4.95;3.38;;;24.30;99.90;;;;;;5032445;28;20469;-54
2023/05/19 11:19:04;;;;;;;;;;;24.30;99.90;;;;;;5033276;28;20058;-55
2023/05/19 11:21:51;;;;;;;4.20;2.85;;;24.30;99.90;;;;;;5032566;28;19905;-54
2023/05/19 11:24:48;;;;;;;4.38;3.00;;;24.30;99.90;;;;;;5032474;28;20037;-54
2023/05/19 11:27:30;;;;;;;6.13;3.20;;;24.30;99.90;;;;;;5032716;28;20017;-54
2023/05/19 11:30:14;;;;;;;3.80;2.80;;;24.30;99.90;;;;;;5032405;28;20025;-54
2023/05/19 11:32:41;;;;;;;6.22;3.83;;;24.30;99.90;;;;;;5032584;28;20029;-55
2023/05/19 11:35:08;;;;;;;4.97;3.08;;;24.30;99.90;;;;;;5031373;28;20018;-55
2023/05/19 11:37:35;;;;;;;4.10;2.90;;;24.30;99.90;;;;;;5032326;28;20531;-54
2023/05/19 11:40:06;;;;;;;5.23;3.23;;;24.30;99.90;;;;;;5032664;28;20024;-55
2023/05/19 11:42:33;;;;;;;4.47;2.88;;;24.30;99.90;;;;;;5031569;28;20381;-54
2023/05/19 11:44:59;;;;;;;;;;;24.30;99.90;;;;;;5035956;28;20013;-55
2023/05/19 11:47:26;;;;;;;5.13;3.03;;;24.30;99.90;;;;;;5036471;28;19959;-55
2023/05/19 11:49:53;;;;;;;6.60;3.03;;;24.30;99.90;;;;;;5036202;28;20032;-54
2023/05/19 11:52:23;;;;;;;4.47;2.80;;;24.30;99.90;;;;;;5036018;28;20489;-54
2023/05/19 11:54:49;;;;;;;6.35;3.83;;;24.30;99.90;;;;;;5034644;28;20025;-54
2023/05/19 11:57:16;;;;;;;4.25;2.42;;;24.30;99.90;;;;;;5036271;28;20053;-54
2023/05/19 11:59:46;;;;;;;3.95;2.80;;;24.30;99.90;;;;;;5036025;28;20378;-55
2023/05/19 12:02:19;;;;;;;6.57;2.90;;;24.30;99.90;;;;;;5035992;28;20119;-54
2023/05/19 12:04:48;;;;;;;6.63;2.72;;;24.40;99.90;;;;;;5036126;28;20096;-54
2023/05/19 12:07:22;;;;;;;3.97;2.70;;;24.40;99.90;;;;;;5035860;28;20013;-55
2023/05/19 12:09:49;;;;;;;7.47;3.33;;;24.40;99.90;;;;;;5035710;28;20025;-54
2023/05/19 12:12:17;;;;;;;7.15;3.10;;;24.40;99.90;;;;;;5034939;28;20037;-54
2023/05/19 12:14:45;;;;;;;4.88;3.05;;;24.40;99.90;;;;;;5035758;28;20413;-55
2023/05/19 12:17:15;;;;;;;5.88;3.20;;;24.40;99.90;;;;;;5035943;28;20034;-54
2023/05/19 12:19:45;;;;;;;5.38;2.97;;;24.40;99.90;;;;;;5035450;28;20373;-54
2023/05/19 12:22:11;;;;;;;4.43;2.95;;;24.40;99.90;;;;;;5035687;28;20088;-55
2023/05/19 12:24:39;;;;;;;7.20;3.97;;;24.40;99.90;;;;;;5035329;28;20018;-54
2023/05/19 12:27:22;;;;;;;7.35;4.05;;;24.40;99.90;;;;;;5017784;28;20075;-54
2023/05/19 12:29:51;;;;;;;6.55;3.58;;;24.40;99.90;;;;;;5035524;28;20026;-55
2023/05/19 12:32:18;;;;;;;6.07;4.00;;;24.40;99.90;;;;;;5034987;28;20034;-55
2023/05/19 12:34:44;;;;;;;6.45;3.63;;;24.40;99.90;;;;;;5035323;28;20013;-55
2023/05/19 12:37:10;;;;;;;5.13;3.67;;;24.50;99.90;;;;;;5025149;28;20025;-55
2023/05/19 12:39:36;;;;;;;7.43;4.28;;;24.50;99.90;;;;;;5017514;28;20075;-55
2023/05/19 12:42:09;;;;;;;7.30;4.50;;;24.50;99.90;;;;;;5035445;28;20390;-55
2023/05/19 12:44:46;;;;;;;6.60;4.43;;;24.50;99.90;;;;;;5035224;28;20049;-55
2023/05/19 12:47:14;;;;;;;7.88;4.78;;;24.50;99.90;;;;;;5035426;28;20393;-55
2023/05/19 12:49:58;;;;;;;8.00;4.95;;;24.50;99.90;;;;;;5034959;28;20553;-55
2023/05/19 12:52:24;;;;;;;8.43;5.03;;;24.50;99.90;;;;;;5033300;28;20064;-55
2023/05/19 12:55:06;;;;;;;7.18;4.88;;;24.50;99.90;;;;;;5035145;28;20021;-56